createdAt,value
2019-03-20T00:01:43.342Z,52.93
2019-03-20T00:03:40.603Z,32.63
2019-03-20T00:05:44.770Z,133.40
2019-03-20T00:07:49.627Z,844.00
2019-03-20T00:09:53.954Z,748.23
2019-03-20T00:11:58.273Z,454.47
2019-03-20T00:14:02.973Z,227.47
2019-03-20T00:16:07.189Z,80.50
2019-03-20T00:18:11.352Z,41.37
2019-03-20T00:20:15.938Z,21.90
2019-03-20T00:22:20.673Z,15.20
2019-03-20T00:24:25.101Z,112.57
2019-03-20T00:26:29.584Z,406.27
2019-03-20T00:28:33.771Z,90.10
2019-03-20T00:30:38.291Z,30.03
2019-03-20T00:32:42.755Z,17.10
2019-03-20T00:34:47.099Z,13.00
2019-03-20T00:36:51.579Z,11.83
2019-03-20T00:38:56.427Z,9.60
2019-03-20T00:41:00.956Z,10.50
2019-03-20T00:43:05.134Z,11.70
2019-03-20T00:45:11.015Z,96.20
2019-03-20T00:47:15.541Z,805.40
2019-03-20T00:49:20.017Z,784.07
2019-03-20T00:51:24.754Z,525.87
2019-03-20T00:53:29.604Z,295.67
2019-03-20T00:55:34.145Z,576.80
2019-03-20T00:57:39.121Z,706.57
2019-03-20T00:59:43.571Z,793.10
2019-03-20T01:01:47.881Z,477.80
2019-03-20T01:03:52.325Z,230.27
2019-03-20T01:05:57.539Z,95.40
2019-03-20T01:08:01.850Z,33.60
2019-03-20T01:10:07.232Z,55.17
2019-03-20T01:12:12.010Z,285.40
2019-03-20T01:14:16.530Z,320.40
2019-03-20T01:16:20.984Z,163.13
2019-03-20T01:18:25.728Z,33.97
2019-03-20T01:20:30.389Z,14.73
2019-03-20T01:22:34.919Z,13.30
2019-03-20T01:24:39.316Z,9.00
2019-03-20T01:26:43.546Z,11.80
2019-03-20T01:28:48.012Z,8.07
2019-03-20T01:30:52.429Z,158.33
2019-03-20T01:32:57.879Z,20.87
2019-03-20T01:35:02.295Z,8.23
2019-03-20T01:37:06.847Z,8.23
2019-03-20T01:39:11.177Z,7.03
2019-03-20T01:41:16.260Z,34.40
2019-03-20T01:43:20.639Z,45.57
2019-03-20T01:45:25.504Z,15.90
2019-03-20T01:47:30.232Z,13.93
2019-03-20T01:49:34.838Z,8.67
2019-03-20T01:51:39.284Z,7.40
2019-03-20T01:53:43.636Z,7.27
2019-03-20T01:55:48.403Z,11.63
2019-03-20T01:57:52.939Z,7.53
2019-03-20T01:59:57.330Z,7.87
2019-03-20T02:02:01.606Z,7.10
2019-03-20T02:04:06.160Z,7.17
2019-03-20T02:06:10.414Z,6.00
2019-03-20T02:08:15.423Z,5.73
2019-03-20T02:10:19.674Z,6.67
2019-03-20T02:12:23.902Z,7.03
2019-03-20T02:14:28.457Z,6.47
2019-03-20T02:16:33.238Z,6.53
2019-03-20T02:18:40.108Z,5.33
2019-03-20T02:20:44.543Z,5.53
2019-03-20T02:22:49.430Z,5.87
2019-03-20T02:24:53.821Z,5.37
2019-03-20T02:26:58.133Z,5.80
2019-03-20T02:29:02.877Z,6.30
2019-03-20T02:31:07.454Z,5.37
2019-03-20T02:33:11.942Z,5.90
2019-03-20T02:35:16.645Z,5.47
2019-03-20T02:37:20.977Z,6.13
2019-03-20T02:39:25.552Z,6.33
2019-03-20T02:41:30.407Z,6.07
2019-03-20T02:43:34.783Z,5.40
2019-03-20T02:45:39.534Z,7.17
2019-03-20T02:47:44.069Z,5.10
2019-03-20T02:49:48.608Z,6.67
2019-03-20T02:51:53.112Z,5.90
2019-03-20T02:53:57.751Z,5.70
2019-03-20T02:56:03.045Z,7.10
2019-03-20T02:58:09.440Z,6.80
2019-03-20T03:00:15.518Z,5.63
2019-03-20T03:02:22.122Z,7.20
2019-03-20T03:04:28.382Z,5.20
2019-03-20T03:06:32.719Z,5.37
2019-03-20T03:08:37.554Z,4.80
2019-03-20T03:10:41.987Z,5.40
2019-03-20T03:12:46.411Z,4.47
2019-03-20T03:14:51.346Z,5.30
2019-03-20T03:16:55.662Z,4.93
2019-03-20T03:18:59.909Z,4.87
2019-03-20T03:21:04.479Z,4.67
2019-03-20T03:23:09.025Z,6.60
2019-03-20T03:25:13.445Z,4.40
2019-03-20T03:27:17.768Z,5.10
2019-03-20T03:29:22.143Z,5.30
2019-03-20T03:31:26.891Z,5.00
2019-03-20T03:33:31.169Z,5.47
2019-03-20T03:35:35.420Z,5.40
2019-03-20T03:37:39.873Z,4.73
2019-03-20T03:39:44.118Z,4.77
2019-03-20T03:41:48.342Z,4.57
2019-03-20T03:43:52.658Z,4.50
2019-03-20T03:45:57.463Z,4.47
2019-03-20T03:48:01.948Z,5.67
2019-03-20T03:50:07.959Z,4.13
2019-03-20T03:52:15.384Z,4.50
2019-03-20T03:54:19.638Z,4.37
2019-03-20T03:56:23.987Z,4.30
2019-03-20T03:58:29.149Z,4.17
2019-03-20T04:00:33.399Z,4.87
2019-03-20T04:02:37.656Z,4.20
2019-03-20T04:04:41.909Z,4.63
2019-03-20T04:06:46.705Z,4.53
2019-03-20T04:08:50.866Z,4.00
2019-03-20T04:10:55.180Z,4.90
2019-03-20T04:12:59.807Z,4.00
2019-03-20T04:15:04.330Z,4.07
2019-03-20T04:17:25.467Z,4.40
2019-03-20T04:19:31.456Z,3.80
2019-03-20T04:21:35.954Z,4.30
2019-03-20T04:23:40.454Z,4.07
2019-03-20T04:25:45.311Z,4.40
2019-03-20T04:27:49.931Z,3.90
2019-03-20T04:29:54.305Z,3.97
2019-03-20T04:31:58.631Z,4.13
2019-03-20T04:34:02.892Z,4.43
2019-03-20T04:36:07.152Z,3.93
2019-03-20T04:38:11.750Z,3.80
2019-03-20T04:40:16.122Z,4.17
2019-03-20T04:42:20.858Z,4.00
2019-03-20T04:44:25.212Z,3.97
2019-03-20T04:46:29.651Z,4.50
2019-03-20T04:48:34.613Z,3.43
2019-03-20T04:50:38.915Z,4.13
2019-03-20T04:52:43.254Z,4.30
2019-03-20T04:54:48.065Z,3.47
2019-03-20T04:56:52.395Z,3.97
2019-03-20T04:58:56.537Z,3.97
2019-03-20T05:01:01.146Z,3.57
2019-03-20T05:03:05.619Z,3.43
2019-03-20T05:05:10.131Z,4.20
2019-03-20T05:07:14.855Z,4.20
2019-03-20T05:09:19.461Z,3.57
2019-03-20T05:11:28.193Z,3.43
2019-03-20T05:13:35.498Z,3.50
2019-03-20T05:15:40.368Z,4.10
2019-03-20T05:17:44.806Z,4.57
2019-03-20T05:19:51.927Z,4.13
2019-03-20T05:21:56.966Z,4.33
2019-03-20T05:24:01.888Z,3.87
2019-03-20T05:26:06.814Z,4.00
2019-03-20T05:28:11.211Z,3.93
2019-03-20T05:30:16.401Z,4.03
2019-03-20T05:32:21.322Z,4.30
2019-03-20T05:34:25.696Z,4.50
2019-03-20T05:36:29.918Z,3.80
2019-03-20T05:38:34.786Z,5.30
2019-03-20T05:40:38.926Z,5.47
2019-03-20T05:42:43.194Z,3.73
2019-03-20T05:44:47.791Z,4.00
2019-03-20T05:46:51.941Z,4.47
2019-03-20T05:48:56.132Z,3.83
2019-03-20T05:51:00.819Z,5.87
2019-03-20T05:53:04.969Z,4.93
2019-03-20T05:55:09.373Z,4.70
2019-03-20T05:57:14.109Z,5.43
2019-03-20T05:59:18.289Z,5.33
2019-03-20T06:01:22.827Z,3.87
2019-03-20T06:03:27.491Z,3.90
2019-03-20T06:05:31.870Z,5.30
2019-03-20T06:07:36.067Z,6.30
2019-03-20T06:09:41.609Z,5.00
2019-03-20T06:11:46.649Z,5.27
2019-03-20T06:13:51.149Z,5.20
2019-03-20T06:15:58.193Z,4.90
2019-03-20T06:18:03.075Z,5.17
2019-03-20T06:20:08.718Z,4.73
2019-03-20T06:22:13.230Z,4.67
2019-03-20T06:24:17.872Z,5.97
2019-03-20T06:26:22.778Z,5.40
2019-03-20T06:28:27.407Z,5.93
2019-03-20T06:30:41.089Z,4.87
2019-03-20T06:32:45.480Z,5.63
2019-03-20T06:34:50.075Z,5.13
2019-03-20T06:36:54.885Z,4.63
2019-03-20T06:38:59.385Z,7.63
2019-03-20T06:41:04.678Z,6.13
2019-03-20T06:43:10.003Z,6.67
2019-03-20T06:45:14.295Z,10.10
2019-03-20T06:47:20.428Z,8.20
2019-03-20T06:49:25.330Z,10.07
2019-03-20T06:51:30.846Z,14.20
2019-03-20T06:53:35.459Z,18.77
2019-03-20T06:55:39.887Z,79.73
2019-03-20T06:57:44.141Z,255.27
2019-03-20T07:00:38.538Z,362.37
2019-03-20T07:02:46.162Z,311.43
2019-03-20T07:05:30.152Z,83.27
2019-03-20T07:07:44.193Z,40.67
2019-03-20T07:10:24.634Z,27.63
2019-03-20T07:12:29.520Z,98.07
2019-03-20T07:14:34.081Z,556.53
2019-03-20T07:16:39.125Z,567.50
2019-03-20T07:18:43.736Z,99.53
2019-03-20T07:20:48.151Z,37.80
2019-03-20T07:22:54.072Z,410.27
2019-03-20T07:24:58.378Z,41.33
2019-03-20T07:27:02.946Z,61.30
2019-03-20T07:29:07.514Z,279.50
2019-03-20T07:31:15.713Z,789.77
2019-03-20T07:33:17.887Z,1009.70
2019-03-20T07:35:22.822Z,670.23
2019-03-20T07:37:41.101Z,900.40
2019-03-20T07:39:45.730Z,320.73
2019-03-20T07:41:51.162Z,104.63
2019-03-20T07:43:55.361Z,52.20
2019-03-20T07:45:59.714Z,28.00
2019-03-20T07:48:04.351Z,25.23
2019-03-20T07:50:10.107Z,20.30
2019-03-20T07:52:17.315Z,20.13
2019-03-20T07:54:22.718Z,21.17
2019-03-20T07:56:27.469Z,15.30
2019-03-20T07:58:32.649Z,18.63
2019-03-20T08:03:30.842Z,497.10
2019-03-20T08:05:36.126Z,445.60
2019-03-20T08:07:40.755Z,462.17
2019-03-20T08:09:45.331Z,453.80
2019-03-20T08:11:49.532Z,442.37
2019-03-20T08:13:54.276Z,445.97
2019-03-20T08:15:58.758Z,538.00
2019-03-20T08:18:04.591Z,593.13
2019-03-20T08:20:10.754Z,602.73
2019-03-20T08:22:15.660Z,582.27
2019-03-20T08:24:20.159Z,551.23
2019-03-20T08:26:25.131Z,549.90
2019-03-20T08:28:29.592Z,555.03
2019-03-20T08:30:33.828Z,547.67
2019-03-20T08:32:38.449Z,539.20
2019-03-20T08:34:42.681Z,607.90
2019-03-20T08:36:46.927Z,727.67
2019-03-20T08:38:51.582Z,731.27
2019-03-20T08:40:56.181Z,679.53
2019-03-20T08:43:00.435Z,631.77
2019-03-20T08:45:05.613Z,625.17
2019-03-20T08:47:10.298Z,617.53
2019-03-20T08:49:14.596Z,626.83
2019-03-20T08:51:19.105Z,742.93
2019-03-20T08:53:23.360Z,856.20
2019-03-20T08:55:28.212Z,941.03
2019-03-20T08:57:33.416Z,877.67
2019-03-20T08:59:37.602Z,808.93
2019-03-20T09:01:42.792Z,751.83
2019-03-20T09:03:47.315Z,729.70
2019-03-20T09:05:51.665Z,724.57
2019-03-20T09:07:55.936Z,724.47
2019-03-20T09:10:01.302Z,711.77
2019-03-20T09:12:05.874Z,707.37
2019-03-20T09:14:10.307Z,689.93
2019-03-20T09:16:18.230Z,745.67
2019-03-20T09:18:22.519Z,852.37
2019-03-20T09:20:26.953Z,805.87
2019-03-20T09:22:31.646Z,802.73
2019-03-20T09:24:37.980Z,774.70
2019-03-20T09:26:42.341Z,684.57
2019-03-20T09:28:48.011Z,558.80
2019-03-20T09:30:52.299Z,517.67
2019-03-20T09:32:56.571Z,482.80
2019-03-20T09:35:03.285Z,640.37
2019-03-20T09:37:07.787Z,590.50
2019-03-20T09:39:12.222Z,471.97
2019-03-20T09:41:17.592Z,494.97
2019-03-20T09:43:21.721Z,430.33
2019-03-20T09:45:27.167Z,341.73
2019-03-20T09:47:31.378Z,430.73
2019-03-20T09:49:35.843Z,399.50
2019-03-20T09:51:40.699Z,376.33
2019-03-20T09:53:45.340Z,369.40
2019-03-20T09:55:52.756Z,342.73
2019-03-20T09:57:57.035Z,373.53
2019-03-20T10:00:01.843Z,688.33
2019-03-20T10:02:07.376Z,684.13
2019-03-20T10:04:14.901Z,516.87
2019-03-20T10:06:23.781Z,517.10
2019-03-20T10:08:28.611Z,483.37
2019-03-20T10:10:33.289Z,463.63
2019-03-20T10:12:38.349Z,623.27
2019-03-20T10:14:42.716Z,505.67
2019-03-20T10:16:46.906Z,387.40
2019-03-20T10:18:52.088Z,439.90
2019-03-20T10:20:58.577Z,333.00
2019-03-20T10:23:03.245Z,493.17
2019-03-20T10:25:08.541Z,431.90
2019-03-20T10:27:12.749Z,383.23
2019-03-20T10:29:17.193Z,818.23
2019-03-20T10:31:21.763Z,611.63
2019-03-20T10:33:26.008Z,615.17
2019-03-20T10:35:30.600Z,660.37
2019-03-20T10:37:34.845Z,476.60
2019-03-20T10:39:39.072Z,397.40
2019-03-20T10:41:43.299Z,550.10
2019-03-20T10:43:47.879Z,548.87
2019-03-20T10:45:52.040Z,783.83
2019-03-20T10:47:56.262Z,875.60
2019-03-20T10:50:00.785Z,872.37
2019-03-20T10:52:05.115Z,555.67
2019-03-20T10:54:10.611Z,397.10
2019-03-20T10:56:15.198Z,1834.87
2019-03-20T10:58:19.933Z,524.13
2019-03-20T11:00:24.316Z,421.17
2019-03-20T11:02:29.385Z,914.23
2019-03-20T11:04:33.664Z,402.90
2019-03-20T11:06:38.471Z,336.30
2019-03-20T11:08:42.592Z,281.10
2019-03-20T11:10:48.966Z,298.50
2019-03-20T11:12:53.120Z,551.40
2019-03-20T11:14:57.980Z,834.63
2019-03-20T11:17:02.140Z,1999.90
2019-03-20T11:19:06.396Z,919.03
2019-03-20T11:21:11.762Z,632.30
2019-03-20T11:23:16.011Z,767.03
2019-03-20T11:25:20.578Z,1017.17
2019-03-20T11:27:27.619Z,682.33
2019-03-20T11:29:31.354Z,1110.30
2019-03-20T11:31:37.572Z,901.60
2019-03-20T11:33:41.813Z,541.43
2019-03-20T11:35:47.703Z,398.77
2019-03-20T11:37:52.124Z,941.50
2019-03-20T11:39:57.437Z,721.97
2019-03-20T11:42:01.974Z,833.70
2019-03-20T11:44:06.570Z,741.53
2019-03-20T11:46:11.679Z,561.63
2019-03-20T11:48:16.027Z,476.13
2019-03-20T11:50:22.916Z,850.03
2019-03-20T11:52:27.399Z,654.57
2019-03-20T11:54:32.187Z,563.90
2019-03-20T11:56:39.080Z,417.73
2019-03-20T11:58:45.014Z,928.17
2019-03-20T12:00:49.600Z,1999.90
2019-03-20T12:02:54.229Z,653.53
2019-03-20T12:05:00.670Z,566.67
2019-03-20T12:07:05.546Z,372.67
2019-03-20T12:09:10.524Z,402.07
2019-03-20T12:11:16.108Z,394.50
2019-03-20T12:13:20.774Z,481.27
2019-03-20T12:15:25.067Z,618.00
2019-03-20T12:17:31.325Z,361.47
2019-03-20T12:19:44.677Z,302.63
2019-03-20T12:21:46.970Z,264.33
2019-03-20T12:23:53.032Z,210.73
2019-03-20T12:25:58.752Z,483.80
2019-03-20T12:28:07.637Z,695.90
2019-03-20T12:30:15.387Z,569.87
2019-03-20T12:32:22.224Z,480.17
2019-03-20T12:34:26.936Z,1999.90
2019-03-20T12:36:35.958Z,490.43
2019-03-20T12:38:41.806Z,554.13
2019-03-20T12:40:47.858Z,449.87
2019-03-20T12:42:52.438Z,375.63
2019-03-20T12:44:56.614Z,408.00
2019-03-20T12:47:00.897Z,388.83
2019-03-20T12:49:05.777Z,339.33
2019-03-20T12:51:10.324Z,388.13
2019-03-20T12:53:15.716Z,532.10
2019-03-20T12:55:20.953Z,480.73
2019-03-20T12:57:25.541Z,499.83
2019-03-20T12:59:31.390Z,1312.33
2019-03-20T13:01:57.958Z,487.13
2019-03-20T13:04:04.174Z,452.00
2019-03-20T13:06:12.910Z,636.77
2019-03-20T13:08:17.968Z,466.07
2019-03-20T13:10:27.012Z,498.10
2019-03-20T13:12:32.215Z,467.87
2019-03-20T13:14:37.893Z,509.93
2019-03-20T13:16:42.372Z,458.40
2019-03-20T13:18:47.151Z,468.43
2019-03-20T13:20:54.508Z,808.50
2019-03-20T13:23:02.290Z,465.63
2019-03-20T13:25:11.839Z,648.53
2019-03-20T13:27:17.216Z,444.43
2019-03-20T13:29:24.473Z,443.63
2019-03-20T13:31:34.934Z,1023.50
2019-03-20T13:33:40.347Z,449.67
2019-03-20T13:35:45.147Z,1304.40
2019-03-20T13:37:49.598Z,808.53
2019-03-20T13:39:57.372Z,603.70
2019-03-20T13:42:01.718Z,474.10
2019-03-20T13:44:06.008Z,506.17
2019-03-20T13:46:11.013Z,429.27
2019-03-20T13:48:21.373Z,389.90
2019-03-20T13:50:27.213Z,456.10
2019-03-20T13:52:32.292Z,393.03
2019-03-20T13:54:36.810Z,783.17
2019-03-20T13:56:43.647Z,426.17
2019-03-20T13:58:48.279Z,339.17
2019-03-20T14:00:52.738Z,396.10
2019-03-20T14:02:59.562Z,398.57
2019-03-20T14:05:06.910Z,355.97
2019-03-20T14:07:12.002Z,494.67
2019-03-20T14:09:17.388Z,371.57
2019-03-20T14:11:27.489Z,416.77
2019-03-20T14:14:10.918Z,437.23
2019-03-20T14:18:53.017Z,469.63
2019-03-20T14:20:58.107Z,462.30
2019-03-20T14:23:06.218Z,450.43
2019-03-20T14:25:12.251Z,549.80
2019-03-20T14:27:16.998Z,451.10
2019-03-20T14:29:23.738Z,443.60
2019-03-20T14:31:28.384Z,430.53
2019-03-20T14:33:35.613Z,501.13
2019-03-20T14:35:44.308Z,477.77
2019-03-20T14:37:49.870Z,997.03
2019-03-20T14:39:57.552Z,459.60
2019-03-20T14:42:11.812Z,571.87
2019-03-20T14:44:16.287Z,545.63
2019-03-20T14:46:21.987Z,481.17
2019-03-20T14:48:28.982Z,498.03
2019-03-20T14:50:33.239Z,545.43
2019-03-20T14:52:41.777Z,446.57
2019-03-20T14:54:47.601Z,771.93
2019-03-20T14:56:53.229Z,1475.87
2019-03-20T14:59:00.255Z,1025.17
2019-03-20T15:01:09.452Z,410.43
2019-03-20T15:03:15.558Z,393.83
2019-03-20T15:05:23.532Z,349.50
2019-03-20T15:07:28.861Z,313.97
2019-03-20T15:09:33.237Z,293.07
2019-03-20T15:11:37.561Z,278.13
2019-03-20T15:13:42.746Z,276.07
2019-03-20T15:15:53.402Z,267.83
2019-03-20T15:18:00.599Z,252.37
2019-03-20T15:20:06.511Z,250.03
2019-03-20T15:22:11.019Z,252.47
2019-03-20T15:24:16.792Z,282.17
2019-03-20T15:26:22.040Z,240.27
2019-03-20T15:28:29.164Z,1323.93
2019-03-20T15:30:34.531Z,735.10
2019-03-20T15:32:41.454Z,544.23
2019-03-20T15:34:49.475Z,797.37
2019-03-20T15:36:53.924Z,536.67
2019-03-20T15:38:58.319Z,494.83
2019-03-20T15:41:04.483Z,541.23
2019-03-20T15:43:13.413Z,540.07
2019-03-20T15:45:20.100Z,515.63
2019-03-20T15:47:29.261Z,495.73
2019-03-20T15:49:35.245Z,483.07
2019-03-20T15:51:42.884Z,485.60
2019-03-20T15:53:48.033Z,475.53
2019-03-20T15:55:54.718Z,459.30
2019-03-20T15:58:07.708Z,454.53
2019-03-20T16:00:15.150Z,451.70
2019-03-20T16:02:23.073Z,441.93
2019-03-20T16:04:27.552Z,432.97
2019-03-20T16:06:31.816Z,430.33
2019-03-20T16:08:37.616Z,411.10
2019-03-20T16:10:43.283Z,430.37
2019-03-20T16:12:49.589Z,405.17
2019-03-20T16:14:54.313Z,383.30
2019-03-20T16:16:59.602Z,371.03
2019-03-20T16:19:07.059Z,385.30
2019-03-20T16:21:11.712Z,370.57
2019-03-20T16:23:17.197Z,353.83
2019-03-20T16:25:21.960Z,358.07
2019-03-20T16:27:26.940Z,438.90
2019-03-20T16:29:31.797Z,676.07
2019-03-20T16:31:37.226Z,565.87
2019-03-20T16:33:45.388Z,512.50
2019-03-20T16:35:50.396Z,557.43
2019-03-20T16:37:54.746Z,535.73
2019-03-20T16:40:01.004Z,856.40
2019-03-20T16:42:06.224Z,526.20
2019-03-20T16:44:10.990Z,611.00
2019-03-20T16:46:18.535Z,591.77
2019-03-20T16:48:23.798Z,573.50
2019-03-20T16:50:29.401Z,568.87
2019-03-20T16:52:34.635Z,486.83
2019-03-20T16:54:40.067Z,472.07
2019-03-20T16:56:49.600Z,460.37
2019-03-20T16:58:55.034Z,453.60
2019-03-20T17:01:00.866Z,459.13
2019-03-20T17:03:06.798Z,444.10
2019-03-20T17:05:11.096Z,438.90
2019-03-20T17:07:15.500Z,434.83
2019-03-20T17:09:20.326Z,769.23
2019-03-20T17:11:37.943Z,1040.13
2019-03-20T17:13:33.903Z,590.87
2019-03-20T17:15:39.848Z,1847.53
2019-03-20T17:17:45.487Z,655.70
2019-03-20T17:19:50.084Z,672.33
2019-03-20T17:21:55.036Z,1725.03
2019-03-20T17:23:59.894Z,1645.27
2019-03-20T17:26:05.966Z,749.63
2019-03-20T17:28:11.099Z,579.47
2019-03-20T17:30:34.969Z,548.87
2019-03-20T17:32:40.445Z,561.00
2019-03-20T17:34:45.908Z,436.23
2019-03-20T17:36:59.964Z,403.50
2019-03-20T17:39:12.286Z,430.97
2019-03-20T17:41:19.477Z,389.13
2019-03-20T17:43:27.663Z,354.90
2019-03-20T17:45:44.047Z,318.33
2019-03-20T17:47:54.203Z,343.60
2019-03-20T17:50:00.323Z,345.57
2019-03-20T17:52:05.068Z,346.37
2019-03-20T17:54:10.198Z,332.30
2019-03-20T17:56:14.955Z,313.83
2019-03-20T17:58:27.909Z,312.63
2019-03-20T18:00:36.304Z,319.90
2019-03-20T18:02:42.432Z,307.63
2019-03-20T18:04:46.980Z,301.17
2019-03-20T18:06:51.439Z,293.40
2019-03-20T18:08:55.731Z,292.93
2019-03-20T18:11:00.504Z,274.50
2019-03-20T18:13:06.637Z,276.27
2019-03-20T18:15:12.648Z,270.50
2019-03-20T18:17:17.678Z,262.43
2019-03-20T18:19:23.744Z,261.03
2019-03-20T18:21:28.022Z,258.27
2019-03-20T18:23:32.585Z,255.97
2019-03-20T18:25:37.200Z,244.50
2019-03-20T18:27:42.117Z,248.50
2019-03-20T18:29:46.447Z,230.50
2019-03-20T18:31:51.332Z,240.17
2019-03-20T18:33:56.305Z,222.73
2019-03-20T18:36:02.202Z,238.60
2019-03-20T18:38:07.983Z,226.43
2019-03-20T18:40:14.215Z,223.93
2019-03-20T18:42:18.864Z,215.70
2019-03-20T18:44:23.223Z,211.60
2019-03-20T18:46:28.212Z,204.87
2019-03-20T18:48:32.565Z,196.67
2019-03-20T18:50:37.050Z,205.90
2019-03-20T18:52:41.304Z,198.77
2019-03-20T18:54:46.098Z,193.87
2019-03-20T18:56:52.016Z,198.37
2019-03-20T18:59:02.862Z,186.90
2019-03-20T19:01:09.953Z,186.87
2019-03-20T19:03:14.239Z,185.90
2019-03-20T19:05:22.667Z,182.10
2019-03-20T19:07:27.722Z,179.63
2019-03-20T19:09:33.156Z,175.50
2019-03-20T19:11:38.556Z,173.63
2019-03-20T19:13:45.268Z,172.37
2019-03-20T19:15:51.214Z,161.17
2019-03-20T19:17:55.769Z,167.63
2019-03-20T19:20:00.488Z,163.57
2019-03-20T19:22:05.210Z,154.20
2019-03-20T19:24:11.559Z,156.10
2019-03-20T19:26:16.123Z,152.50
2019-03-20T19:28:21.603Z,149.90
2019-03-20T19:30:26.464Z,146.17
2019-03-20T19:32:30.678Z,144.30
2019-03-20T19:34:35.524Z,142.00
2019-03-20T19:36:40.453Z,145.07
2019-03-20T19:38:45.588Z,147.07
2019-03-20T19:40:50.145Z,140.40
2019-03-20T19:42:54.631Z,138.20
2019-03-20T19:44:59.321Z,127.37
2019-03-20T19:47:04.247Z,131.83
2019-03-20T19:49:08.773Z,127.53
2019-03-20T19:51:13.179Z,126.73
2019-03-20T19:53:17.925Z,121.13
2019-03-20T19:55:22.964Z,118.20
2019-03-20T19:57:27.683Z,119.53
2019-03-20T19:59:32.324Z,128.63
2019-03-20T20:01:37.423Z,114.03
2019-03-20T20:03:41.922Z,110.13
2019-03-20T20:05:46.605Z,109.20
2019-03-20T20:07:54.458Z,105.13
2019-03-20T20:09:59.351Z,99.30
2019-03-20T20:12:07.498Z,106.63
2019-03-20T20:14:11.953Z,100.10
2019-03-20T20:16:16.390Z,95.77
2019-03-20T20:18:20.587Z,103.17
2019-03-20T20:20:26.981Z,94.07
2019-03-20T20:22:32.184Z,92.10
2019-03-20T20:24:37.656Z,97.53
2019-03-20T20:26:42.167Z,92.03
2019-03-20T20:28:46.367Z,88.50
2019-03-20T20:30:53.511Z,85.53
2019-03-20T20:33:01.739Z,85.63
2019-03-20T20:35:06.561Z,86.63
2019-03-20T20:37:11.311Z,86.37
2019-03-20T20:39:15.928Z,84.40
2019-03-20T20:41:22.227Z,81.20
2019-03-20T20:43:31.349Z,84.80
2019-03-20T20:45:35.979Z,79.87
2019-03-20T20:47:40.190Z,81.07
2019-03-20T20:49:44.627Z,76.50
2019-03-20T20:51:49.224Z,78.43
2019-03-20T20:53:56.960Z,75.73
2019-03-20T20:56:02.759Z,71.37
2019-03-20T20:58:07.101Z,71.00
2019-03-20T21:00:18.995Z,69.07
2019-03-20T21:02:24.502Z,72.73
2019-03-20T21:04:30.779Z,71.13
2019-03-20T21:06:38.845Z,71.33
2019-03-20T21:08:50.143Z,69.50
2019-03-20T21:10:54.902Z,67.33
2019-03-20T21:13:00.468Z,66.90
2019-03-20T21:15:18.179Z,65.27
2019-03-20T21:17:38.834Z,61.43
2019-03-20T21:19:47.412Z,69.37
2019-03-20T21:22:32.211Z,68.40
2019-03-20T21:24:37.393Z,66.30
2019-03-20T21:26:56.791Z,63.63
2019-03-20T21:29:39.464Z,61.83
2019-03-20T21:31:54.352Z,62.93
2019-03-20T21:34:36.402Z,60.80
2019-03-20T21:37:16.758Z,61.37
2019-03-20T21:39:21.743Z,60.70
2019-03-20T21:42:07.209Z,61.57
2019-03-20T21:44:53.011Z,62.40
2019-03-20T21:47:33.833Z,59.03
2019-03-20T21:49:45.162Z,57.07
2019-03-20T21:51:51.320Z,60.73
2019-03-20T21:54:32.038Z,55.90
2019-03-20T21:56:44.278Z,58.17
2019-03-20T21:59:09.763Z,359.80
2019-03-20T22:02:09.246Z,845.47
2019-03-20T22:04:14.756Z,590.23
2019-03-20T22:06:55.222Z,537.03
2019-03-20T22:09:08.295Z,503.10
2019-03-20T22:11:49.436Z,495.43
2019-03-20T22:13:59.710Z,482.50
2019-03-20T22:16:43.116Z,470.57
2019-03-20T22:19:43.305Z,461.03
2019-03-20T22:22:15.494Z,458.73
2019-03-20T22:25:24.845Z,446.43
2019-03-20T22:28:18.078Z,441.93
2019-03-20T22:30:25.670Z,715.70
2019-03-20T22:33:07.541Z,809.73
2019-03-20T22:35:57.573Z,719.40
2019-03-20T22:38:03.890Z,672.43
2019-03-20T22:40:53.702Z,659.40
2019-03-20T22:43:06.774Z,639.57
2019-03-20T22:45:44.489Z,628.97
2019-03-20T22:48:16.515Z,621.30
2019-03-20T22:50:29.080Z,824.07
2019-03-20T22:53:47.920Z,798.87
2019-03-20T22:56:13.727Z,954.10
2019-03-20T22:58:50.695Z,804.73
2019-03-20T23:00:56.373Z,779.87
2019-03-20T23:03:06.027Z,778.37
2019-03-20T23:05:14.971Z,755.97
2019-03-20T23:07:20.015Z,997.63
2019-03-20T23:09:24.958Z,959.40
2019-03-20T23:11:30.161Z,824.60
2019-03-20T23:13:41.482Z,887.13
2019-03-20T23:15:42.125Z,985.73
2019-03-20T23:17:47.081Z,1109.97
2019-03-20T23:19:53.472Z,884.63
2019-03-20T23:21:58.591Z,785.17
2019-03-20T23:24:04.695Z,738.20
2019-03-20T23:26:10.288Z,712.27
2019-03-20T23:28:15.320Z,1093.53
2019-03-20T23:30:23.509Z,894.53
2019-03-20T23:32:28.822Z,906.70
2019-03-20T23:34:33.668Z,762.53
2019-03-20T23:36:39.422Z,708.33
2019-03-20T23:38:44.557Z,676.07
2019-03-20T23:40:49.370Z,658.70
2019-03-20T23:42:54.597Z,632.80
2019-03-20T23:44:59.379Z,619.90
2019-03-20T23:47:04.207Z,615.83
2019-03-20T23:49:27.216Z,610.77
2019-03-20T23:51:32.406Z,588.13
2019-03-20T23:53:38.655Z,593.17
2019-03-20T23:55:43.894Z,576.23
2019-03-20T23:57:48.710Z,561.93
2019-03-20T23:59:54.264Z,565.10
